Potash Bay, Vermont
Current Conditions -  °F | °C
As of 1:55 PM on Thursday 30 Oct 2014 (Local Time) from K6B0 Reporting Station
Overcast Overcast  
Wind Chill: 50°   Ceiling: 5000
Heat Index: 50°   Visibility: 10mi
Dew Point: 36°   Wind: 7mph
Humidity: 57%   Direction: 360°N
Pressure: 29.94"   Gusts: NA
Location:  44.0804°N, 73.3324°W
Report Text: K6B0 301755Z AUTO 36006KT 10SM SCT045 OVC050 10/02 A2994 RMK AO2 60003 T01010020 10110 20072
Loading
Personal Weather Stations






























Interactive Weather Map
Tropical Storm Tracking
New forecast layout! Learn more

10-Day Weather Forecast

Advertisements
Track Severe Weather on mobile